Time;durP1;ratioP1;P1;durP2;ratioP2;P2;SDS_P1;SDS_P2;PMS_P1;PMS_P2;Temp;Humidity;BMP_temperature;BMP_pressure;BME280_temperature;BME280_humidity;BME280_pressure;Samples;Min_cycle;Max_cycle;Signal;HPM_P1;HPM_P2
2023/10/04 00:01:47;;;;;;;2.90;2.10;;;11.20;99.90;;;;;;4972844;28;20035;-78
2023/10/04 00:04:12;;;;;;;4.43;2.00;;;11.20;99.90;;;;;;4974358;28;20031;-80
2023/10/04 00:06:41;;;;;;;3.90;2.42;;;11.20;99.90;;;;;;4975268;28;20180;-79
2023/10/04 00:09:09;;;;;;;2.45;1.90;;;11.10;99.90;;;;;;4968559;28;20109;-81
2023/10/04 00:11:35;;;;;;;4.32;1.92;;;11.10;99.90;;;;;;4972536;28;20045;-81
2023/10/04 00:14:01;;;;;;;5.82;2.22;;;11.10;99.90;;;;;;4964205;28;20055;-82
2023/10/04 00:16:27;;;;;;;5.88;2.00;;;11.10;99.90;;;;;;4967245;28;20463;-82
2023/10/04 00:18:54;;;;;;;6.07;2.63;;;11.10;99.90;;;;;;4972829;28;20130;-82
2023/10/04 00:21:20;;;;;;;2.55;2.22;;;11.10;99.90;;;;;;4937891;28;20035;-78
2023/10/04 00:23:46;;;;;;;2.50;2.10;;;11.10;99.90;;;;;;4952165;28;20030;-78
2023/10/04 00:26:12;;;;;;;3.50;2.15;;;11.00;99.90;;;;;;4972134;28;20059;-78
2023/10/04 00:28:38;;;;;;;3.20;2.40;;;11.00;99.90;;;;;;4976756;28;20113;-82
2023/10/04 00:31:05;;;;;;;2.30;2.10;;;10.90;99.90;;;;;;4957054;28;20042;-81
2023/10/04 00:33:31;;;;;;;4.60;2.40;;;10.90;99.90;;;;;;4954733;28;20038;-77
2023/10/04 00:36:03;;;;;;;3.42;1.98;;;10.90;99.90;;;;;;4952644;28;20054;-79
2023/10/04 00:38:31;;;;;;;5.35;2.58;;;10.90;99.90;;;;;;4952492;28;20034;-78
2023/10/04 00:40:56;;;;;;;5.35;2.80;;;10.90;99.90;;;;;;4958662;28;20726;-78
2023/10/04 00:43:23;;;;;;;5.90;2.53;;;10.80;99.90;;;;;;4968559;28;20034;-80
2023/10/04 00:45:50;;;;;;;4.25;2.42;;;10.70;99.90;;;;;;4954476;28;20087;-79
2023/10/04 00:48:34;;;;;;;6.47;2.90;;;10.70;99.90;;;;;;4967575;28;20044;-81
2023/10/04 00:51:01;;;;;;;6.85;2.95;;;10.70;99.90;;;;;;4969101;28;20034;-80
2023/10/04 00:53:29;;;;;;;4.10;2.63;;;10.60;99.90;;;;;;4957258;28;20035;-81
2023/10/04 00:55:56;;;;;;;3.22;2.50;;;10.60;99.90;;;;;;4972244;28;20034;-77
2023/10/04 00:58:24;;;;;;;3.33;2.55;;;10.60;99.90;;;;;;4963290;28;20027;-79
2023/10/04 01:00:49;;;;;;;3.78;2.30;;;10.60;99.90;;;;;;4965769;28;20019;-80
2023/10/04 01:03:20;;;;;;;4.10;2.63;;;10.50;99.90;;;;;;4965538;28;20039;-78
2023/10/04 01:05:47;;;;;;;6.63;2.78;;;10.60;99.90;;;;;;4967475;28;20030;-79
2023/10/04 01:08:22;;;;;;;3.63;2.58;;;10.50;99.90;;;;;;4965116;28;20391;-79
2023/10/04 01:10:51;;;;;;;;;;;10.50;99.90;;;;;;4956827;28;20035;-79
2023/10/04 01:13:27;;;;;;;5.00;2.47;;;10.50;99.90;;;;;;4968175;28;19910;-79
2023/10/04 01:16:12;;;;;;;3.00;2.30;;;10.50;99.90;;;;;;4969991;28;20136;-77
2023/10/04 01:18:38;;;;;;;2.90;2.42;;;10.40;99.90;;;;;;4952721;28;20057;-80
2023/10/04 01:21:05;;;;;;;7.03;2.53;;;10.50;99.90;;;;;;4954406;28;20495;-79
2023/10/04 01:23:31;;;;;;;5.55;2.92;;;10.40;99.90;;;;;;4952297;28;20484;-81
2023/10/04 01:25:57;;;;;;;4.32;2.88;;;10.40;99.90;;;;;;4925395;28;20122;-79
2023/10/04 01:28:30;;;;;;;4.47;2.60;;;10.40;99.90;;;;;;4959074;28;20058;-81
2023/10/04 01:30:59;;;;;;;2.85;2.25;;;10.40;99.90;;;;;;4974907;28;20034;-80
2023/10/04 01:33:25;;;;;;;3.03;2.35;;;10.40;99.90;;;;;;4971344;28;20636;-78
2023/10/04 01:35:56;;;;;;;3.47;2.30;;;10.40;99.90;;;;;;4971965;28;20049;-79
2023/10/04 01:38:26;;;;;;;3.47;2.50;;;10.30;99.90;;;;;;4967513;28;20038;-78
2023/10/04 01:40:53;;;;;;;5.10;2.80;;;10.40;99.90;;;;;;4973140;28;20031;-79
2023/10/04 01:43:19;;;;;;;3.35;2.50;;;10.30;99.90;;;;;;4973063;28;20022;-80
2023/10/04 01:46:00;;;;;;;2.88;2.38;;;10.30;99.90;;;;;;4952100;28;20097;-77
2023/10/04 01:48:27;;;;;;;5.15;2.70;;;10.30;99.90;;;;;;4967114;28;20514;-80
2023/10/04 01:50:53;;;;;;;4.68;2.33;;;10.30;99.90;;;;;;4958038;28;20031;-77
2023/10/04 01:53:26;;;;;;;5.72;3.08;;;10.30;99.90;;;;;;4953516;28;20038;-79
2023/10/04 01:55:53;;;;;;;7.88;3.05;;;10.30;99.90;;;;;;4975101;28;20054;-79
2023/10/04 01:58:23;;;;;;;6.43;2.80;;;10.30;99.90;;;;;;4953370;28;20051;-80
2023/10/04 02:00:53;;;;;;;2.50;2.05;;;10.20;99.90;;;;;;4975470;28;20019;-80
2023/10/04 02:03:20;;;;;;;6.00;2.60;;;10.20;99.90;;;;;;4968606;28;20086;-80
2023/10/04 02:05:48;;;;;;;3.92;2.90;;;10.20;99.90;;;;;;4967907;28;20041;-80
2023/10/04 02:08:15;;;;;;;5.18;2.55;;;10.20;99.90;;;;;;4954626;28;20463;-80
2023/10/04 02:10:41;;;;;;;4.22;2.53;;;10.20;99.90;;;;;;4968618;28;20073;-79
2023/10/04 02:13:11;;;;;;;5.97;2.80;;;10.20;99.90;;;;;;4971841;28;20065;-79
2023/10/04 02:15:44;;;;;;;8.05;2.67;;;10.10;99.90;;;;;;4939640;28;20446;-81
2023/10/04 02:18:10;;;;;;;5.50;3.10;;;10.10;99.90;;;;;;4944697;28;20397;-79
2023/10/04 02:20:36;;;;;;;7.85;3.30;;;10.00;99.90;;;;;;4972872;28;20081;-79
2023/10/04 02:23:07;;;;;;;4.03;2.83;;;10.00;99.90;;;;;;4965785;28;20039;-80
2023/10/04 02:25:33;;;;;;;4.85;2.58;;;9.90;99.90;;;;;;4968443;28;20030;-80
2023/10/04 02:28:09;;;;;;;6.57;2.97;;;10.00;99.90;;;;;;4968630;28;20026;-81
2023/10/04 02:30:39;;;;;;;6.07;3.28;;;10.00;99.90;;;;;;4970633;28;20026;-83
2023/10/04 02:33:13;;;;;;;4.25;3.10;;;10.00;99.90;;;;;;4943869;28;20057;-83
2023/10/04 02:35:44;;;;;;;8.55;3.35;;;9.90;99.90;;;;;;4962590;28;20041;-83
2023/10/04 02:38:23;;;;;;;6.57;3.42;;;9.90;99.90;;;;;;4953430;28;20038;-85
2023/10/04 02:40:50;;;;;;;6.40;3.22;;;9.80;99.90;;;;;;4959631;28;20031;-84
2023/10/04 02:43:21;;;;;;;5.07;2.92;;;9.80;99.90;;;;;;4949724;28;20035;-81
2023/10/04 02:45:51;;;;;;;5.95;3.08;;;9.80;99.90;;;;;;4965264;28;20035;-82
2023/10/04 02:48:19;;;;;;;4.88;3.00;;;9.80;99.90;;;;;;4952779;28;20750;-81
2023/10/04 02:50:49;;;;;;;5.60;2.78;;;9.90;99.90;;;;;;4957138;28;20113;-80
2023/10/04 02:53:24;;;;;;;5.07;2.75;;;9.90;99.90;;;;;;4954067;28;20035;-80
2023/10/04 02:55:54;;;;;;;5.60;2.88;;;9.80;99.90;;;;;;4961197;28;20035;-79
2023/10/04 02:58:21;;;;;;;4.90;2.80;;;9.80;99.90;;;;;;4949962;28;20027;-82
2023/10/04 03:00:49;;;;;;;3.78;2.60;;;9.80;99.90;;;;;;4958180;28;20019;-80
2023/10/04 03:03:24;;;;;;;4.13;2.47;;;9.80;99.90;;;;;;4950628;28;20599;-79
2023/10/04 03:05:58;;;;;;;7.35;3.22;;;9.80;99.90;;;;;;4958546;28;20080;-81
2023/10/04 03:08:24;;;;;;;6.88;3.20;;;9.70;99.90;;;;;;4958297;28;20121;-81
2023/10/04 03:10:50;;;;;;;5.18;3.03;;;9.80;99.90;;;;;;4974069;28;20035;-79
2023/10/04 03:13:24;;;;;;;9.50;3.97;;;9.80;99.90;;;;;;4958997;28;20162;-81
2023/10/04 03:15:53;;;;;;;4.73;3.50;;;9.80;99.90;;;;;;4957678;28;20057;-80
2023/10/04 03:18:19;;;;;;;7.38;4.03;;;9.70;99.90;;;;;;4973192;28;20278;-81
2023/10/04 03:21:20;;;;;;;5.40;3.83;;;9.70;99.90;;;;;;4955197;28;20030;-81
2023/10/04 03:23:42;;;;;;;9.23;4.47;;;9.70;99.90;;;;;;4956148;28;20038;-80
2023/10/04 03:26:14;;;;;;;6.90;4.25;;;9.60;99.90;;;;;;4935057;28;20035;-82
2023/10/04 03:28:42;;;;;;;7.03;4.72;;;9.70;99.90;;;;;;4951993;28;20043;-80
2023/10/04 03:31:18;;;;;;;6.47;4.40;;;9.60;99.90;;;;;;4957949;28;20035;-80
2023/10/04 03:33:49;;;;;;;10.65;4.60;;;9.60;99.90;;;;;;4971729;28;20043;-79
2023/10/04 03:36:19;;;;;;;8.23;4.22;;;9.60;99.90;;;;;;4959036;28;20468;-79
2023/10/04 03:38:50;;;;;;;7.43;4.78;;;9.60;99.90;;;;;;4949343;28;20032;-81
2023/10/04 03:41:19;;;;;;;9.00;4.32;;;9.70;99.90;;;;;;4964923;28;20039;-81
2023/10/04 03:43:45;;;;;;;8.27;5.00;;;9.80;99.90;;;;;;4955373;28;20015;-80
2023/10/04 03:46:17;;;;;;;8.45;4.82;;;9.80;99.90;;;;;;4953999;28;20582;-79
2023/10/04 03:48:49;;;;;;;9.52;4.65;;;9.80;99.90;;;;;;4955570;28;20037;-82
2023/10/04 03:51:20;;;;;;;7.95;4.45;;;9.90;99.90;;;;;;4956899;28;20093;-79
2023/10/04 03:53:47;;;;;;;8.52;4.18;;;9.90;99.90;;;;;;4955069;28;20073;-82
2023/10/04 03:56:16;;;;;;;9.45;4.75;;;9.90;99.90;;;;;;4970423;28;20027;-80
2023/10/04 03:58:44;;;;;;;8.02;4.50;;;9.90;99.90;;;;;;4953524;28;20031;-82
2023/10/04 04:01:14;;;;;;;5.22;3.35;;;9.90;99.90;;;;;;4953082;28;20038;-80
2023/10/04 04:03:40;;;;;;;5.43;3.28;;;9.90;99.90;;;;;;4945672;28;20068;-80
2023/10/04 04:06:06;;;;;;;5.43;3.72;;;9.90;99.90;;;;;;4972428;28;20027;-81
2023/10/04 04:08:33;;;;;;;5.78;3.58;;;10.00;99.90;;;;;;4954337;28;20039;-81
2023/10/04 04:11:01;;;;;;;6.70;4.10;;;10.00;99.90;;;;;;4949460;28;20034;-80
2023/10/04 04:13:27;;;;;;;5.57;3.80;;;10.00;99.90;;;;;;4958411;28;20400;-79
2023/10/04 04:15:53;;;;;;;7.20;3.97;;;10.00;99.90;;;;;;4957368;28;20037;-80
2023/10/04 04:18:23;;;;;;;6.35;4.40;;;10.00;99.90;;;;;;4954693;28;20753;-82
2023/10/04 04:20:54;;;;;;;6.65;3.92;;;10.00;99.90;;;;;;4969404;28;20030;-81
2023/10/04 04:23:21;;;;;;;7.05;4.68;;;10.00;99.90;;;;;;4961993;28;20038;-80
2023/10/04 04:25:49;;;;;;;6.82;4.65;;;10.10;99.90;;;;;;4968538;28;20038;-83
2023/10/04 04:28:18;;;;;;;6.55;4.32;;;10.10;99.90;;;;;;4961839;28;20042;-83
2023/10/04 04:30:46;;;;;;;8.20;5.13;;;10.10;99.90;;;;;;4928106;28;20121;-82
2023/10/04 04:33:17;;;;;;;6.45;4.60;;;10.10;99.90;;;;;;4938887;28;20039;-81
2023/10/04 04:38:25;;;;;;;10.55;4.20;;;10.10;99.90;;;;;;4959578;28;20031;-80
2023/10/04 04:40:56;;;;;;;7.57;4.93;;;10.10;99.90;;;;;;4962245;28;20385;-79
2023/10/04 04:43:36;;;;;;;6.78;4.60;;;10.10;99.90;;;;;;4966254;28;20029;-81
2023/10/04 04:46:09;;;;;;;7.18;4.90;;;10.00;99.90;;;;;;4950515;28;20431;-78
2023/10/04 04:48:36;;;;;;;9.02;5.20;;;10.00;99.90;;;;;;4960750;28;20475;-80
2023/10/04 04:53:42;;;;;;;10.13;4.82;;;10.00;99.90;;;;;;4961170;28;20030;-78
2023/10/04 04:56:13;;;;;;;7.15;4.65;;;10.00;99.90;;;;;;4954847;28;20027;-79
2023/10/04 04:58:41;;;;;;;8.05;4.25;;;10.00;99.90;;;;;;4956298;28;20118;-80
2023/10/04 05:01:11;;;;;;;7.68;4.95;;;10.00;99.90;;;;;;4955471;28;20027;-80
2023/10/04 05:03:41;;;;;;;6.55;4.20;;;9.90;99.90;;;;;;4950700;28;20114;-80
2023/10/04 05:06:12;;;;;;;8.25;4.40;;;9.90;99.90;;;;;;4962965;28;20043;-81
2023/10/04 05:08:38;;;;;;;6.00;4.47;;;9.90;99.90;;;;;;4968169;28;20035;-81
2023/10/04 05:11:07;;;;;;;6.60;4.60;;;9.90;99.90;;;;;;4973848;28;20042;-81
2023/10/04 05:13:33;;;;;;;9.60;4.88;;;9.90;99.90;;;;;;4955970;28;20039;-86
2023/10/04 05:16:00;;;;;;;7.65;4.45;;;9.90;99.90;;;;;;4982632;28;20341;-82
2023/10/04 05:18:26;;;;;;;6.50;4.68;;;9.90;99.90;;;;;;4943758;28;20145;-79
2023/10/04 05:20:54;;;;;;;7.35;3.95;;;9.90;99.90;;;;;;4976048;28;20101;-81
2023/10/04 05:23:22;;;;;;;7.68;5.00;;;9.90;99.90;;;;;;4971676;28;20041;-81
2023/10/04 05:25:49;;;;;;;7.53;4.97;;;9.90;99.90;;;;;;4950437;28;20039;-81
2023/10/04 05:28:15;;;;;;;7.65;5.05;;;9.90;99.90;;;;;;4956951;28;20538;-83
2023/10/04 05:30:44;;;;;;;9.75;4.88;;;9.90;99.90;;;;;;4978220;28;20113;-83
2023/10/04 05:33:10;;;;;;;6.25;4.72;;;9.90;99.90;;;;;;4964305;28;20555;-84
2023/10/04 05:35:37;;;;;;;9.73;4.80;;;9.90;99.90;;;;;;4977565;28;20038;-80
2023/10/04 05:38:07;;;;;;;7.70;4.45;;;9.90;99.90;;;;;;4967170;28;20081;-79
2023/10/04 05:40:38;;;;;;;7.25;4.80;;;9.90;99.90;;;;;;4967951;28;20041;-81
2023/10/04 05:43:08;;;;;;;7.80;5.35;;;9.90;99.90;;;;;;4968813;28;20117;-82
2023/10/04 05:45:34;;;;;;;8.27;4.88;;;9.90;99.90;;;;;;4971257;28;20042;-79
2023/10/04 05:48:00;;;;;;;8.13;4.72;;;10.00;99.90;;;;;;4969360;28;20037;-80
2023/10/04 05:50:27;;;;;;;7.63;4.38;;;10.00;99.90;;;;;;4975978;28;20027;-82
2023/10/04 05:52:53;;;;;;;7.35;4.55;;;10.00;99.90;;;;;;4969940;28;20034;-80
2023/10/04 05:55:20;;;;;;;5.45;3.97;;;10.00;99.90;;;;;;4973325;28;20442;-82
2023/10/04 05:57:48;;;;;;;6.68;4.38;;;10.10;99.90;;;;;;4970004;28;20113;-82
2023/10/04 06:00:33;;;;;;;8.55;4.18;;;10.10;99.90;;;;;;4970169;28;20022;-81
2023/10/04 06:03:04;;;;;;;6.50;4.35;;;10.10;99.90;;;;;;4970369;28;20033;-80
2023/10/04 06:05:33;;;;;;;7.45;4.68;;;10.10;99.90;;;;;;4971181;28;20563;-81
2023/10/04 06:07:59;;;;;;;6.10;4.47;;;10.20;99.90;;;;;;4949035;28;20437;-81
2023/10/04 06:10:25;;;;;;;7.72;4.57;;;10.20;99.90;;;;;;4969117;28;20435;-80
2023/10/04 06:12:56;;;;;;;6.13;4.05;;;10.20;99.90;;;;;;4950623;28;20034;-80
2023/10/04 06:15:24;;;;;;;6.15;4.43;;;10.20;99.90;;;;;;4968479;28;20512;-82
2023/10/04 06:17:51;;;;;;;9.25;4.72;;;10.30;99.90;;;;;;4969152;28;20042;-80
2023/10/04 06:20:25;;;;;;;7.43;4.63;;;10.30;99.90;;;;;;4967436;28;20140;-81
2023/10/04 06:23:00;;;;;;;8.27;4.90;;;10.40;99.90;;;;;;4970189;28;20041;-82
2023/10/04 06:25:28;;;;;;;8.18;5.15;;;10.50;99.90;;;;;;4969060;28;20050;-80
2023/10/04 06:27:56;;;;;;;6.15;4.78;;;10.70;99.90;;;;;;4969660;28;20047;-80
2023/10/04 06:30:27;;;;;;;9.38;4.68;;;10.90;99.90;;;;;;4951435;28;20034;-80
2023/10/04 06:32:55;;;;;;;7.15;4.65;;;11.10;99.90;;;;;;4964886;28;20054;-82
2023/10/04 06:35:23;;;;;;;6.95;4.90;;;11.30;99.90;;;;;;4935048;28;20039;-82
2023/10/04 06:37:53;;;;;;;5.85;4.57;;;11.40;99.90;;;;;;4966715;28;20127;-80
2023/10/04 06:40:19;;;;;;;7.47;4.50;;;11.50;99.90;;;;;;4969087;28;20484;-82
2023/10/04 06:42:46;;;;;;;7.28;4.30;;;11.50;99.90;;;;;;4954217;28;20022;-82
2023/10/04 06:45:16;;;;;;;6.20;4.47;;;11.50;99.90;;;;;;4968406;28;20050;-80
2023/10/04 06:47:44;;;;;;;7.57;4.30;;;11.60;99.90;;;;;;4966998;28;20042;-80
2023/10/04 06:50:14;;;;;;;6.22;4.22;;;11.50;99.90;;;;;;4964536;28;20042;-80
2023/10/04 06:52:59;;;;;;;6.45;4.78;;;11.50;99.90;;;;;;4972950;28;20081;-81
2023/10/04 06:55:26;;;;;;;6.35;4.05;;;11.50;99.90;;;;;;4952487;28;20085;-81
2023/10/04 06:57:53;;;;;;;6.55;3.83;;;11.40;99.90;;;;;;4966148;28;20118;-79
2023/10/04 07:00:20;;;;;;;8.10;3.97;;;11.40;99.90;;;;;;4970427;28;20050;-77
2023/10/04 07:02:49;;;;;;;5.95;3.83;;;11.40;99.90;;;;;;4966415;28;20204;-79
2023/10/04 07:05:20;;;;;;;8.25;4.07;;;11.40;99.90;;;;;;4945965;28;20382;-81
2023/10/04 07:07:47;;;;;;;5.97;4.25;;;11.40;99.90;;;;;;4970532;28;20093;-80
2023/10/04 07:10:20;;;;;;;6.20;4.30;;;11.50;99.90;;;;;;4969135;28;20130;-78
2023/10/04 07:12:54;;;;;;;7.00;4.72;;;11.60;99.90;;;;;;4982362;28;20042;-79
2023/10/04 07:15:21;;;;;;;6.07;4.88;;;11.60;99.90;;;;;;4972902;28;20613;-79
2023/10/04 07:17:48;;;;;;;7.45;5.00;;;11.60;99.90;;;;;;4980446;28;20519;-80
2023/10/04 07:20:15;;;;;;;7.93;5.40;;;11.70;99.90;;;;;;4969653;28;20082;-77
2023/10/04 07:22:45;;;;;;;6.40;4.72;;;11.70;99.90;;;;;;4969335;28;20504;-79
2023/10/04 07:25:12;;;;;;;5.80;4.35;;;11.80;99.90;;;;;;4970916;28;20035;-80
2023/10/04 07:27:41;;;;;;;8.15;5.05;;;11.80;99.90;;;;;;4982122;28;20042;-78
2023/10/04 07:30:07;;;;;;;5.95;4.95;;;11.90;99.90;;;;;;4978541;28;20039;-79
2023/10/04 07:32:33;;;;;;;7.57;5.55;;;11.80;99.90;;;;;;4975136;28;20037;-77
2023/10/04 07:35:00;;;;;;;7.45;5.28;;;11.80;99.90;;;;;;4974860;28;20031;-81
2023/10/04 07:37:26;;;;;;;9.13;6.10;;;11.90;99.90;;;;;;4976453;28;20126;-80
2023/10/04 07:39:52;;;;;;;8.52;5.53;;;12.00;99.90;;;;;;4980512;28;20055;-80
2023/10/04 07:42:21;;;;;;;6.95;5.40;;;12.00;99.90;;;;;;4968885;28;20749;-78
2023/10/04 07:44:48;;;;;;;7.95;4.75;;;11.90;99.90;;;;;;4972220;28;20035;-79
2023/10/04 07:47:14;;;;;;;10.50;5.20;;;11.90;99.90;;;;;;4975115;28;20455;-82
2023/10/04 07:49:39;;;;;;;8.20;5.47;;;11.90;99.90;;;;;;4965846;28;20038;-82
2023/10/04 07:52:05;;;;;;;6.72;5.38;;;11.90;99.90;;;;;;4979415;28;20119;-80
2023/10/04 07:54:31;;;;;;;7.03;5.55;;;11.90;99.90;;;;;;4976403;28;20053;-77
2023/10/04 07:56:57;;;;;;;10.05;5.28;;;12.00;99.90;;;;;;4973728;28;20118;-78
2023/10/04 07:59:23;;;;;;;10.52;5.68;;;12.00;99.90;;;;;;4975621;28;20422;-78
2023/10/04 08:01:49;;;;;;;7.20;5.15;;;12.00;99.90;;;;;;4971224;28;20098;-80
2023/10/04 08:04:14;;;;;;;8.10;5.40;;;12.10;99.90;;;;;;4969269;28;20519;-77
2023/10/04 08:06:49;;;;;;;9.57;5.35;;;12.10;99.90;;;;;;4971896;28;20035;-80
2023/10/04 08:09:15;;;;;;;12.68;5.15;;;12.10;99.90;;;;;;4972987;28;20063;-79
2023/10/04 08:11:41;;;;;;;8.88;4.82;;;12.10;99.90;;;;;;4974053;28;20117;-78
2023/10/04 08:14:07;;;;;;;6.10;4.70;;;12.10;99.90;;;;;;4973358;28;20117;-80
2023/10/04 08:16:34;;;;;;;6.78;4.35;;;12.00;99.90;;;;;;4970346;28;20416;-80
2023/10/04 08:19:03;;;;;;;6.28;4.53;;;12.00;99.90;;;;;;4979013;28;20034;-80
2023/10/04 08:21:30;;;;;;;8.07;5.47;;;12.00;99.90;;;;;;4954172;28;20589;-81
2023/10/04 08:23:57;;;;;;;7.22;4.63;;;12.00;99.90;;;;;;4979457;28;20058;-78
2023/10/04 08:26:23;;;;;;;10.20;5.25;;;12.00;99.90;;;;;;4971168;28;20027;-80
2023/10/04 08:28:49;;;;;;;5.75;4.85;;;12.00;99.90;;;;;;4968552;28;20077;-80
2023/10/04 08:31:18;;;;;;;8.10;5.43;;;12.00;99.90;;;;;;4971711;28;20403;-81
2023/10/04 08:33:44;;;;;;;9.77;5.55;;;12.10;99.90;;;;;;4968745;28;20039;-78
2023/10/04 08:36:16;;;;;;;8.95;4.97;;;12.10;99.90;;;;;;4969574;28;20085;-80
2023/10/04 08:38:42;;;;;;;10.38;5.70;;;12.10;99.90;;;;;;4977174;28;20027;-78
2023/10/04 08:41:08;;;;;;;9.00;5.38;;;12.10;99.90;;;;;;4978276;28;20386;-78
2023/10/04 08:43:34;;;;;;;7.78;5.53;;;12.20;99.90;;;;;;4971663;28;20022;-80
2023/10/04 08:46:02;;;;;;;6.38;5.15;;;12.20;99.90;;;;;;4937386;28;20039;-80
2023/10/04 08:48:29;;;;;;;9.07;5.88;;;12.20;99.90;;;;;;4976339;28;20057;-80
2023/10/04 08:51:08;;;;;;;8.27;5.30;;;12.30;99.90;;;;;;4971700;28;20610;-79
2023/10/04 08:53:44;;;;;;;9.30;6.03;;;12.30;99.90;;;;;;4952536;28;20023;-78
2023/10/04 08:56:13;;;;;;;5.80;4.93;;;12.50;99.90;;;;;;4973392;28;20045;-79
2023/10/04 08:58:43;;;;;;;8.25;5.30;;;12.50;99.90;;;;;;4974823;28;20046;-81
2023/10/04 09:01:11;;;;;;;9.00;5.72;;;12.70;99.90;;;;;;4980082;28;20184;-80
2023/10/04 09:03:40;;;;;;;7.40;5.03;;;12.70;99.90;;;;;;4976651;28;20026;-79
2023/10/04 09:06:10;;;;;;;10.23;5.88;;;12.70;99.90;;;;;;4970862;28;20108;-79
2023/10/04 09:08:40;;;;;;;10.90;6.10;;;12.70;99.90;;;;;;4968229;28;20369;-79
2023/10/04 09:11:12;;;;;;;7.53;5.25;;;12.70;99.90;;;;;;4953534;28;20035;-80
2023/10/04 09:13:47;;;;;;;8.30;5.53;;;12.70;99.90;;;;;;4970671;28;20125;-78
2023/10/04 09:16:25;;;;;;;8.57;5.78;;;12.80;99.90;;;;;;4970483;28;20038;-79
2023/10/04 09:19:14;;;;;;;7.63;5.32;;;12.80;99.90;;;;;;4965840;28;20270;-80
2023/10/04 09:21:41;;;;;;;9.40;4.78;;;12.80;99.90;;;;;;4970790;28;20038;-80
2023/10/04 09:24:12;;;;;;;9.75;5.30;;;12.90;99.90;;;;;;4972701;28;20039;-80
2023/10/04 09:26:52;;;;;;;7.88;4.60;;;13.00;99.90;;;;;;4977399;28;20501;-80
2023/10/04 09:29:32;;;;;;;8.07;4.30;;;13.00;99.90;;;;;;4954826;28;20030;-80
2023/10/04 09:31:58;;;;;;;7.85;5.00;;;13.10;99.90;;;;;;4960042;28;20598;-80
2023/10/04 09:34:24;;;;;;;4.80;4.30;;;13.10;99.90;;;;;;4967971;28;20030;-79
2023/10/04 09:36:54;;;;;;;8.57;5.13;;;13.20;99.90;;;;;;4977780;28;20041;-78
2023/10/04 09:39:28;;;;;;;6.00;4.85;;;13.30;99.90;;;;;;4960632;28;20031;-80
2023/10/04 09:41:55;;;;;;;5.95;4.18;;;13.40;99.90;;;;;;4952234;28;20027;-79
2023/10/04 09:44:29;;;;;;;8.48;4.65;;;13.50;99.90;;;;;;4963880;28;20039;-78
2023/10/04 09:47:03;;;;;;;4.60;4.20;;;13.60;99.90;;;;;;4966605;28;20547;-78
2023/10/04 09:49:33;;;;;;;9.05;4.93;;;13.60;99.90;;;;;;4971145;28;20035;-79
2023/10/04 09:52:00;;;;;;;4.85;3.90;;;13.70;99.90;;;;;;4967479;28;20027;-80
2023/10/04 09:54:30;;;;;;;5.85;3.60;;;13.70;99.90;;;;;;4966762;28;20142;-80
2023/10/04 09:56:57;;;;;;;3.38;2.85;;;13.70;99.90;;;;;;4981673;28;20030;-80
2023/10/04 09:59:23;;;;;;;4.50;2.75;;;13.70;99.90;;;;;;4973114;28;20041;-81
2023/10/04 10:01:55;;;;;;;4.93;2.50;;;13.60;99.90;;;;;;4966945;28;20970;-78
2023/10/04 10:04:25;;;;;;;5.30;2.30;;;13.50;99.90;;;;;;4969039;28;20054;-79
2023/10/04 10:07:17;;;;;;;2.83;2.00;;;13.50;99.90;;;;;;4970733;28;20533;-78
2023/10/04 10:09:58;;;;;;;5.82;2.22;;;13.40;99.90;;;;;;4968309;28;20110;-81
2023/10/04 10:12:29;;;;;;;6.18;2.13;;;13.40;99.90;;;;;;4967824;28;20114;-78
2023/10/04 10:14:57;;;;;;;5.60;1.90;;;13.40;99.90;;;;;;4968031;28;20042;-80
2023/10/04 10:17:23;;;;;;;4.72;2.10;;;13.40;99.90;;;;;;4957445;28;20158;-78
2023/10/04 10:19:48;;;;;;;4.50;2.25;;;13.50;99.90;;;;;;4950349;28;20051;-79
2023/10/04 10:22:16;;;;;;;2.75;1.75;;;13.50;99.90;;;;;;4969964;28;20035;-80
2023/10/04 10:25:16;;;;;;;2.03;1.65;;;13.60;99.90;;;;;;4962003;28;20527;-78
2023/10/04 10:27:43;;;;;;;3.10;2.25;;;13.70;99.90;;;;;;4967880;28;20089;-77
2023/10/04 10:30:12;;;;;;;3.35;1.60;;;13.80;99.90;;;;;;4963523;28;20035;-80
2023/10/04 10:32:49;;;;;;;5.55;1.65;;;13.80;99.90;;;;;;4970093;28;20047;-78
2023/10/04 10:35:56;;;;;;;4.20;1.77;;;13.80;99.90;;;;;;4953808;28;20100;-79
2023/10/04 10:38:45;;;;;;;1.77;1.50;;;13.90;99.90;;;;;;4962079;28;20053;-76
2023/10/04 10:41:30;;;;;;;6.13;2.00;;;14.00;99.90;;;;;;4963835;28;20173;-80
2023/10/04 10:44:34;;;;;;;3.00;1.60;;;14.00;99.90;;;;;;4970236;28;20058;-81
2023/10/04 10:47:14;;;;;;;4.28;1.48;;;14.10;99.90;;;;;;4962364;28;20039;-80
2023/10/04 10:49:57;;;;;;;4.60;1.67;;;14.00;99.90;;;;;;4964783;28;20039;-81
2023/10/04 10:52:38;;;;;;;3.50;1.60;;;14.00;99.90;;;;;;4954772;28;20688;-80
2023/10/04 10:55:06;;;;;;;3.00;1.45;;;13.90;99.90;;;;;;4962780;28;20491;-80
2023/10/04 10:57:36;;;;;;;4.95;1.45;;;13.90;99.90;;;;;;4981302;28;20027;-81
2023/10/04 11:00:32;;;;;;;3.88;1.70;;;13.90;99.90;;;;;;4971623;28;20495;-80
2023/10/04 11:02:55;;;;;;;2.85;1.20;;;14.00;99.90;;;;;;4965123;28;20443;-82
2023/10/04 11:05:22;;;;;;;5.28;1.30;;;14.10;99.90;;;;;;4973237;28;20042;-81
2023/10/04 11:07:52;;;;;;;3.45;1.50;;;14.20;99.90;;;;;;4970587;28;20023;-78
2023/10/04 11:10:20;;;;;;;2.25;1.45;;;14.30;99.90;;;;;;4966063;28;20498;-81
2023/10/04 11:12:47;;;;;;;2.85;1.50;;;14.40;99.90;;;;;;4969000;28;20031;-79
2023/10/04 11:15:13;;;;;;;5.28;1.48;;;14.60;99.90;;;;;;4967927;28;20034;-79
2023/10/04 11:17:40;;;;;;;2.90;1.17;;;14.70;99.90;;;;;;4975682;28;20035;-79
2023/10/04 11:20:09;;;;;;;2.72;1.38;;;14.90;99.90;;;;;;4977907;28;20031;-79
2023/10/04 11:22:39;;;;;;;1.98;1.10;;;15.10;99.90;;;;;;4960198;28;20427;-79
2023/10/04 11:25:07;;;;;;;3.00;1.25;;;15.30;99.90;;;;;;4971947;28;20194;-80
2023/10/04 11:27:34;;;;;;;1.85;0.95;;;15.30;99.90;;;;;;4968731;28;20130;-80
2023/10/04 11:30:00;;;;;;;1.65;0.98;;;15.30;99.90;;;;;;4963514;28;20969;-79
2023/10/04 11:32:30;;;;;;;1.27;1.15;;;15.20;99.90;;;;;;4969086;28;20049;-79
2023/10/04 11:35:07;;;;;;;3.17;1.15;;;15.10;99.90;;;;;;4966623;28;20094;-79
2023/10/04 11:37:43;;;;;;;4.53;1.38;;;15.10;99.90;;;;;;4967933;28;20089;-79
2023/10/04 11:40:11;;;;;;;2.05;0.85;;;15.00;99.90;;;;;;4963726;28;20035;-79
2023/10/04 11:42:37;;;;;;;3.03;1.02;;;15.00;99.90;;;;;;4952875;28;20105;-80
2023/10/04 11:45:20;;;;;;;2.47;1.30;;;15.00;99.90;;;;;;4971260;28;20088;-79
2023/10/04 11:48:00;;;;;;;4.97;1.42;;;15.10;99.90;;;;;;4971194;28;20043;-80
2023/10/04 11:50:41;;;;;;;2.40;1.27;;;15.20;99.90;;;;;;4958309;28;20027;-79
2023/10/04 11:53:06;;;;;;;3.28;1.15;;;15.20;99.90;;;;;;4975850;28;20034;-79
2023/10/04 11:55:36;;;;;;;2.53;1.25;;;15.30;99.90;;;;;;4975689;28;20556;-81
2023/10/04 11:58:06;;;;;;;2.63;0.88;;;15.30;99.90;;;;;;4940515;28;20110;-80
2023/10/04 12:00:32;;;;;;;4.53;0.90;;;15.40;99.90;;;;;;4974923;28;20030;-79
2023/10/04 12:03:02;;;;;;;2.40;0.85;;;15.40;99.90;;;;;;4972618;28;20690;-78
2023/10/04 12:05:27;;;;;;;4.07;1.52;;;15.50;99.90;;;;;;4975966;28;20039;-80
2023/10/04 12:07:58;;;;;;;1.40;1.02;;;15.70;99.90;;;;;;4975862;28;20031;-80
2023/10/04 12:10:27;;;;;;;2.42;0.80;;;15.80;99.90;;;;;;4964884;28;20034;-78
2023/10/04 12:12:55;;;;;;;2.53;1.10;;;15.80;99.90;;;;;;4975527;28;20534;-78
2023/10/04 12:15:21;;;;;;;3.40;1.10;;;15.80;99.90;;;;;;4966122;28;20070;-79
2023/10/04 12:17:48;;;;;;;10.55;1.70;;;16.00;99.90;;;;;;4975602;28;20492;-80
2023/10/04 12:20:14;;;;;;;2.42;1.00;;;16.10;99.90;;;;;;4974067;28;20089;-79
2023/10/04 12:22:40;;;;;;;3.28;1.27;;;16.30;99.90;;;;;;4950068;28;20652;-81
2023/10/04 12:25:06;;;;;;;2.60;1.10;;;16.50;99.90;;;;;;4963206;28;20204;-80
2023/10/04 12:27:32;;;;;;;4.70;0.95;;;16.60;99.90;;;;;;4977198;28;20514;-78
2023/10/04 12:29:57;;;;;;;2.55;0.80;;;16.60;99.90;;;;;;4940609;28;20073;-80
2023/10/04 12:32:23;;;;;;;1.60;0.88;;;16.60;99.90;;;;;;4969005;28;20043;-78
2023/10/04 12:34:49;;;;;;;5.38;1.10;;;16.50;99.90;;;;;;4972201;28;20038;-79
2023/10/04 12:37:15;;;;;;;4.75;1.00;;;16.40;99.90;;;;;;4968477;28;20046;-79
2023/10/04 12:39:43;;;;;;;3.88;1.23;;;16.20;99.90;;;;;;4963166;28;20028;-79
2023/10/04 12:42:09;;;;;;;1.50;0.90;;;16.10;99.90;;;;;;4961619;28;20045;-79
2023/10/04 12:44:41;;;;;;;2.03;1.00;;;15.90;99.90;;;;;;4966283;28;20062;-78
2023/10/04 12:47:08;;;;;;;4.50;1.10;;;15.70;99.90;;;;;;4967102;28;20042;-79
2023/10/04 12:49:34;;;;;;;1.10;0.80;;;15.50;99.90;;;;;;4951716;28;20109;-80
2023/10/04 12:52:00;;;;;;;5.40;1.48;;;15.40;99.90;;;;;;4971595;28;20061;-80
2023/10/04 12:54:28;;;;;;;4.55;0.90;;;15.30;99.90;;;;;;4970598;28;20038;-81
2023/10/04 12:56:55;;;;;;;2.28;1.00;;;15.20;99.90;;;;;;4960304;28;20412;-78
2023/10/04 12:59:23;;;;;;;1.48;1.00;;;15.20;99.90;;;;;;4960124;28;20049;-81
2023/10/04 13:01:53;;;;;;;3.25;0.73;;;15.10;99.90;;;;;;4980798;28;20163;-81
2023/10/04 13:04:19;;;;;;;2.80;0.90;;;15.00;99.90;;;;;;4958883;28;20042;-80
2023/10/04 13:06:44;;;;;;;1.90;1.10;;;14.90;99.90;;;;;;4939583;28;20900;-81